Beaver County Airport
KBVI : now visible

Airfield :











YOU CAN JOIN US ON...

 
LOGIN :

Register | Disclaimer

   EN    FR    IT 

 









Legend :    VFR   Marginal VFR   IFR   Intensive IFR   Very Intensive IFR
Visi :
Ceiling :
>= 8 km
>= 3000ft
5 to 8 km
1000 to 3000 ft
1500m to 5 km
500 to 1000 ft
800 to 1500m
200 to 500 ft
< 800m
< 200 ft
Symbols :   Thunderstorms  Fog  Heavy snow  Heavy precipitations  Wind > 20 kt






- Airport Elevation : 1253 ft


KBVI - Beaver County

CURRENT METAR :
  • 280255Z AUTO 27006KT 10SM BKN049 18/11 A2980 RMK AO2 T01750113

EXPIRED METARs :
  • 280235Z AUTO 28005KT 10SM OVC049 18/12 A2980 RMK AO2 T01800115
  • 280215Z AUTO 29009G16KT 260V320 10SM OVC047 18/12 A2980 RMK AO2 T01810116
  • 280155Z AUTO 29005KT 10SM BKN047 18/12 A2979 RMK AO2 T01820116
  • 280135Z AUTO 28009KT 10SM BKN043 18/12 A2979 RMK AO2 T01820117
  • 280115Z AUTO 28004KT 10SM OVC040 18/12 A2978 RMK AO2 T01830117
  • 280055Z AUTO 29006G16KT 10SM BKN042 19/12 A2977 RMK AO2 T01900115
  • 280035Z AUTO 31016G26KT 10SM SCT035 SCT042 20/12 A2977 RMK AO2 T01950115
  • 280015Z AUTO 30008G22KT 10SM BKN035 BKN043 BKN050 20/12 A2975 RMK AO2 T02040124
  • 272355Z AUTO 30012G20KT 10SM BKN035 BKN042 OVC050 22/14 A2974 RMK AO2 T02210139
  • 272335Z AUTO 29008G15KT 250V310 10SM SCT037 SCT044 SCT070 23/14 A2971 RMK AO2 T02270141
  • 272315Z AUTO 28011G19KT 10SM CLR 24/14 A2970 RMK AO2 T02380136
  • 272255Z AUTO 28010G15KT 10SM SCT047 SCT075 24/14 A2968 RMK AO2 T02400140
  • 272235Z AUTO 27008KT 10SM SCT036 BKN046 BKN070 25/17 A2967 RMK AO2 T02520165

TAF KBVI
Valid from the 28 at 01:00 until the 29 at 00:00 UTC


280059Z 2801/2824 29010G18KT P6SM BKN050
FM280800 22007KT P6SM SCT020
FM281500 26012G20KT P6SM BKN050
PROB30 2818/2822 3SM -TSRA BKN025CB
FM282200 29010KT P6SM BKN035
KZOB FIR / North America



MET'MAP, your aeronautical weather chart ! - Copyright ORBIFLY December 2007 - Disclaimer

ORBIFLY MET'MAP TEAM :

Programming & Development : Alexandra Zaïnal
Original concept : Baudouin d'Aumeries
Technical & hardware support : Manuel Goepfert
Assistance : Marc-Olivier Méhu




SOURCES & CREDITS :

   NOAA       Earth
Advisory